Etusivu
METAR-TAF:

METAR-TAF

Lentoasemat :

Roberval, Quebec, Kanada

Leveyspiiri: 48-31N, Pituuspiiri: 072-16W, korkeus merenpinnasta: 179 m

Tämänhetkinen sää

Tämä raportti tehtiin 59 minuuttia sitten, kello 12.00 UTC
Tuuli 5 kn idästä, vaihdellen pohjoisen/koillisen ja kaakon välillä
Lämpötila 2°C
Kosteus 60%
Ilmanpaine 1012 hPa
Näkyvyys: 64.4 km
Muutamia pilviä 8000 ft:n korkeudessa

METAR: CYRJ 111200Z 08005KT 030V130 40SM FEW080 02/M05 A2989 RMK AC1 AC TR SLP130

Aika: 08:59 (12:59 UTC)

Sääennuste

Tämä raportti tehtiin 1 tunti ja 21 minuuttia sitten, kello 11.38 UTC
Ennuste voimassa 11. päivästä klo 12 UTC - 11. päivään klo 24 UTC
Tuuli 3 kn eri suunnista
Näkyvyys: 10 km
Muutamia pilviä 8000 ft:n korkeudessa
Tulossa
11. päivästä klo 12 UTC - 11. päivään klo 14 UTC
Tuuli 10 kn koillisesta
selkeää

TAF: CYRJ 111138Z 1112/1124 VRB03KT P6SM FEW080 BECMG 1112/1114 05010KT SKC RMK NXT FCST BY 111400Z

Säähavainnot ja -ennusteet yli 4000 lentoasemalta (METAR- ja TAF-raportit).

Käytössä olevat sääasemat on merkitty karttaan keltaisilla ja punaisilla pisteillä.

Aseta hiiri pisteen päälle nähdäksesi sääaseman nimen.

Klikkaa sitten nähdäksesi säähavainnot ja -ennusteet.

Kartan vaihtaminen: klikkaa mustalla rastilla varustettuja vihreitä pisteitä, niin voit zoomata sisään; viivalla varustettua vihreää pistettä, niin voit zoomata ulos tai vihreitä nuolia, niin pääset viereisille kartoille.


METAR-TAF: